sensor_id;sensor_type;location;lat;lon;timestamp;P1;durP1;ratioP1;P2;durP2;ratioP2
69937;SDS011;57248;47.320;15.998;2023-02-03T00:01:56;10.67;;;2.90;;
69937;SDS011;57248;47.320;15.998;2023-02-03T00:04:28;9.52;;;3.22;;
69937;SDS011;57248;47.320;15.998;2023-02-03T00:07:01;9.35;;;3.13;;
69937;SDS011;57248;47.320;15.998;2023-02-03T00:09:33;9.27;;;3.08;;
69937;SDS011;57248;47.320;15.998;2023-02-03T00:12:05;9.98;;;3.65;;
69937;SDS011;57248;47.320;15.998;2023-02-03T00:14:39;9.03;;;3.00;;
69937;SDS011;57248;47.320;15.998;2023-02-03T00:17:11;9.50;;;3.50;;
69937;SDS011;57248;47.320;15.998;2023-02-03T00:19:36;11.90;;;3.80;;
69937;SDS011;57248;47.320;15.998;2023-02-03T00:22:08;12.35;;;3.85;;
69937;SDS011;57248;47.320;15.998;2023-02-03T00:24:40;11.25;;;4.28;;
69937;SDS011;57248;47.320;15.998;2023-02-03T00:27:12;12.18;;;3.65;;
69937;SDS011;57248;47.320;15.998;2023-02-03T00:29:44;13.25;;;4.25;;
69937;SDS011;57248;47.320;15.998;2023-02-03T00:32:16;11.23;;;4.37;;
69937;SDS011;57248;47.320;15.998;2023-02-03T00:34:48;13.57;;;4.68;;
69937;SDS011;57248;47.320;15.998;2023-02-03T00:37:20;11.73;;;5.45;;
69937;SDS011;57248;47.320;15.998;2023-02-03T00:39:53;12.95;;;4.53;;
69937;SDS011;57248;47.320;15.998;2023-02-03T00:42:25;16.13;;;4.10;;
69937;SDS011;57248;47.320;15.998;2023-02-03T00:44:57;12.17;;;3.90;;
69937;SDS011;57248;47.320;15.998;2023-02-03T00:47:29;11.18;;;3.78;;
69937;SDS011;57248;47.320;15.998;2023-02-03T00:50:01;10.73;;;3.40;;
69937;SDS011;57248;47.320;15.998;2023-02-03T00:52:33;9.95;;;3.60;;
69937;SDS011;57248;47.320;15.998;2023-02-03T00:55:05;11.18;;;3.17;;
69937;SDS011;57248;47.320;15.998;2023-02-03T00:57:38;8.93;;;2.93;;
69937;SDS011;57248;47.320;15.998;2023-02-03T01:00:10;7.57;;;2.75;;
69937;SDS011;57248;47.320;15.998;2023-02-03T01:02:43;6.90;;;2.05;;
69937;SDS011;57248;47.320;15.998;2023-02-03T01:05:16;9.63;;;2.30;;
69937;SDS011;57248;47.320;15.998;2023-02-03T01:07:49;7.18;;;2.05;;
69937;SDS011;57248;47.320;15.998;2023-02-03T01:10:21;8.90;;;2.30;;
69937;SDS011;57248;47.320;15.998;2023-02-03T01:12:53;9.77;;;3.35;;
69937;SDS011;57248;47.320;15.998;2023-02-03T01:15:26;13.00;;;5.28;;
69937;SDS011;57248;47.320;15.998;2023-02-03T01:17:52;11.65;;;4.88;;
69937;SDS011;57248;47.320;15.998;2023-02-03T01:20:24;11.63;;;4.40;;
69937;SDS011;57248;47.320;15.998;2023-02-03T01:22:56;9.95;;;3.88;;
69937;SDS011;57248;47.320;15.998;2023-02-03T01:25:29;9.07;;;2.97;;
69937;SDS011;57248;47.320;15.998;2023-02-03T01:28:01;9.43;;;3.53;;
69937;SDS011;57248;47.320;15.998;2023-02-03T01:30:33;9.60;;;3.65;;
69937;SDS011;57248;47.320;15.998;2023-02-03T01:33:05;8.43;;;2.80;;
69937;SDS011;57248;47.320;15.998;2023-02-03T01:35:37;9.30;;;2.90;;
69937;SDS011;57248;47.320;15.998;2023-02-03T01:38:09;8.23;;;2.80;;
69937;SDS011;57248;47.320;15.998;2023-02-03T01:40:42;8.13;;;2.63;;
69937;SDS011;57248;47.320;15.998;2023-02-03T01:43:28;6.97;;;2.22;;
69937;SDS011;57248;47.320;15.998;2023-02-03T01:48:58;7.75;;;2.65;;
69937;SDS011;57248;47.320;15.998;2023-02-03T01:51:32;7.03;;;2.33;;
69937;SDS011;57248;47.320;15.998;2023-02-03T01:54:06;8.43;;;2.60;;
69937;SDS011;57248;47.320;15.998;2023-02-03T01:56:50;6.30;;;2.00;;
69937;SDS011;57248;47.320;15.998;2023-02-03T01:59:26;5.90;;;2.20;;
69937;SDS011;57248;47.320;15.998;2023-02-03T02:02:00;7.88;;;2.72;;
69937;SDS011;57248;47.320;15.998;2023-02-03T02:04:35;6.80;;;2.45;;
69937;SDS011;57248;47.320;15.998;2023-02-03T02:07:13;7.40;;;2.05;;
69937;SDS011;57248;47.320;15.998;2023-02-03T02:09:46;7.57;;;2.65;;
69937;SDS011;57248;47.320;15.998;2023-02-03T02:12:19;6.37;;;2.37;;
69937;SDS011;57248;47.320;15.998;2023-02-03T02:14:51;6.38;;;2.03;;
69937;SDS011;57248;47.320;15.998;2023-02-03T02:20:23;6.55;;;2.20;;
69937;SDS011;57248;47.320;15.998;2023-02-03T02:31:59;6.40;;;2.20;;
69937;SDS011;57248;47.320;15.998;2023-02-03T02:38:03;6.13;;;2.20;;
69937;SDS011;57248;47.320;15.998;2023-02-03T02:43:09;6.45;;;2.00;;
69937;SDS011;57248;47.320;15.998;2023-02-03T02:45:50;8.07;;;2.45;;
69937;SDS011;57248;47.320;15.998;2023-02-03T02:51:02;7.28;;;2.50;;
69937;SDS011;57248;47.320;15.998;2023-02-03T02:53:39;5.47;;;1.87;;
69937;SDS011;57248;47.320;15.998;2023-02-03T02:56:31;7.50;;;2.22;;
69937;SDS011;57248;47.320;15.998;2023-02-03T02:59:07;6.72;;;2.22;;
69937;SDS011;57248;47.320;15.998;2023-02-03T03:01:40;7.50;;;2.40;;
69937;SDS011;57248;47.320;15.998;2023-02-03T03:04:12;8.15;;;2.50;;
69937;SDS011;57248;47.320;15.998;2023-02-03T03:06:48;7.13;;;2.77;;
69937;SDS011;57248;47.320;15.998;2023-02-03T03:09:25;8.00;;;3.63;;
69937;SDS011;57248;47.320;15.998;2023-02-03T03:12:08;8.00;;;2.97;;
69937;SDS011;57248;47.320;15.998;2023-02-03T03:14:47;8.13;;;2.60;;
69937;SDS011;57248;47.320;15.998;2023-02-03T03:17:26;7.05;;;2.03;;
69937;SDS011;57248;47.320;15.998;2023-02-03T03:20:02;7.30;;;2.33;;
69937;SDS011;57248;47.320;15.998;2023-02-03T03:22:41;7.63;;;2.75;;
69937;SDS011;57248;47.320;15.998;2023-02-03T03:25:20;7.25;;;2.70;;
69937;SDS011;57248;47.320;15.998;2023-02-03T03:27:58;7.28;;;2.67;;
69937;SDS011;57248;47.320;15.998;2023-02-03T03:30:36;9.68;;;3.70;;
69937;SDS011;57248;47.320;15.998;2023-02-03T03:33:10;10.53;;;3.37;;
69937;SDS011;57248;47.320;15.998;2023-02-03T03:35:47;10.18;;;3.42;;
69937;SDS011;57248;47.320;15.998;2023-02-03T03:38:33;9.23;;;3.33;;
69937;SDS011;57248;47.320;15.998;2023-02-03T03:41:18;8.75;;;3.25;;
69937;SDS011;57248;47.320;15.998;2023-02-03T03:43:58;8.65;;;3.40;;
69937;SDS011;57248;47.320;15.998;2023-02-03T03:46:36;8.20;;;2.53;;
69937;SDS011;57248;47.320;15.998;2023-02-03T03:49:14;8.32;;;2.97;;
69937;SDS011;57248;47.320;15.998;2023-02-03T03:51:50;7.30;;;2.65;;
69937;SDS011;57248;47.320;15.998;2023-02-03T03:54:26;8.73;;;3.10;;
69937;SDS011;57248;47.320;15.998;2023-02-03T03:57:03;7.05;;;2.50;;
69937;SDS011;57248;47.320;15.998;2023-02-03T03:59:40;6.60;;;2.33;;
69937;SDS011;57248;47.320;15.998;2023-02-03T04:02:17;7.45;;;2.35;;
69937;SDS011;57248;47.320;15.998;2023-02-03T04:04:51;6.78;;;2.70;;
69937;SDS011;57248;47.320;15.998;2023-02-03T04:07:24;8.38;;;2.40;;
69937;SDS011;57248;47.320;15.998;2023-02-03T04:10:31;6.63;;;2.75;;
69937;SDS011;57248;47.320;15.998;2023-02-03T04:13:05;6.67;;;2.30;;
69937;SDS011;57248;47.320;15.998;2023-02-03T04:15:38;6.60;;;2.30;;
69937;SDS011;57248;47.320;15.998;2023-02-03T04:18:14;7.80;;;2.67;;
69937;SDS011;57248;47.320;15.998;2023-02-03T04:20:46;8.00;;;2.55;;
69937;SDS011;57248;47.320;15.998;2023-02-03T04:23:18;7.28;;;2.65;;
69937;SDS011;57248;47.320;15.998;2023-02-03T04:25:51;8.77;;;2.80;;
69937;SDS011;57248;47.320;15.998;2023-02-03T04:28:23;7.05;;;2.25;;
69937;SDS011;57248;47.320;15.998;2023-02-03T04:30:58;6.95;;;2.38;;
69937;SDS011;57248;47.320;15.998;2023-02-03T04:33:31;7.00;;;2.42;;
69937;SDS011;57248;47.320;15.998;2023-02-03T04:36:03;9.20;;;2.60;;
69937;SDS011;57248;47.320;15.998;2023-02-03T04:38:35;9.30;;;2.67;;
69937;SDS011;57248;47.320;15.998;2023-02-03T04:41:00;7.20;;;2.38;;
69937;SDS011;57248;47.320;15.998;2023-02-03T04:43:32;7.27;;;2.60;;
69937;SDS011;57248;47.320;15.998;2023-02-03T04:46:04;7.05;;;2.33;;
69937;SDS011;57248;47.320;15.998;2023-02-03T04:48:36;12.07;;;2.63;;
69937;SDS011;57248;47.320;15.998;2023-02-03T04:51:02;7.70;;;2.60;;
69937;SDS011;57248;47.320;15.998;2023-02-03T04:53:36;7.07;;;2.53;;
69937;SDS011;57248;47.320;15.998;2023-02-03T04:56:08;7.20;;;2.10;;
69937;SDS011;57248;47.320;15.998;2023-02-03T04:58:54;10.05;;;2.70;;
69937;SDS011;57248;47.320;15.998;2023-02-03T05:01:26;6.23;;;2.40;;
69937;SDS011;57248;47.320;15.998;2023-02-03T05:03:58;7.20;;;2.45;;
69937;SDS011;57248;47.320;15.998;2023-02-03T05:06:30;5.85;;;2.30;;
69937;SDS011;57248;47.320;15.998;2023-02-03T05:09:04;8.20;;;2.83;;
69937;SDS011;57248;47.320;15.998;2023-02-03T05:11:36;14.93;;;7.03;;
69937;SDS011;57248;47.320;15.998;2023-02-03T05:14:08;11.37;;;4.97;;
69937;SDS011;57248;47.320;15.998;2023-02-03T05:16:40;12.93;;;5.10;;
69937;SDS011;57248;47.320;15.998;2023-02-03T05:19:12;10.75;;;4.55;;
69937;SDS011;57248;47.320;15.998;2023-02-03T05:21:45;10.18;;;4.35;;
69937;SDS011;57248;47.320;15.998;2023-02-03T05:24:17;12.63;;;4.32;;
69937;SDS011;57248;47.320;15.998;2023-02-03T05:26:49;14.30;;;5.00;;
69937;SDS011;57248;47.320;15.998;2023-02-03T05:29:23;9.75;;;4.68;;
69937;SDS011;57248;47.320;15.998;2023-02-03T05:31:55;13.02;;;5.15;;
69937;SDS011;57248;47.320;15.998;2023-02-03T05:34:27;12.57;;;5.15;;
69937;SDS011;57248;47.320;15.998;2023-02-03T05:36:59;13.00;;;5.28;;
69937;SDS011;57248;47.320;15.998;2023-02-03T05:39:32;28.63;;;10.77;;
69937;SDS011;57248;47.320;15.998;2023-02-03T05:42:04;17.75;;;7.57;;
69937;SDS011;57248;47.320;15.998;2023-02-03T05:44:31;10.82;;;4.80;;
69937;SDS011;57248;47.320;15.998;2023-02-03T05:47:03;9.60;;;4.23;;
69937;SDS011;57248;47.320;15.998;2023-02-03T05:49:35;9.90;;;4.03;;
69937;SDS011;57248;47.320;15.998;2023-02-03T05:52:07;8.05;;;3.30;;
69937;SDS011;57248;47.320;15.998;2023-02-03T05:54:39;9.18;;;3.45;;
69937;SDS011;57248;47.320;15.998;2023-02-03T05:57:11;12.68;;;3.78;;
69937;SDS011;57248;47.320;15.998;2023-02-03T05:59:50;10.50;;;4.07;;
69937;SDS011;57248;47.320;15.998;2023-02-03T06:02:22;13.40;;;4.85;;
69937;SDS011;57248;47.320;15.998;2023-02-03T06:04:54;11.77;;;3.72;;
69937;SDS011;57248;47.320;15.998;2023-02-03T06:07:19;6.57;;;2.83;;
69937;SDS011;57248;47.320;15.998;2023-02-03T06:09:52;7.50;;;2.13;;
69937;SDS011;57248;47.320;15.998;2023-02-03T06:12:24;8.32;;;3.35;;
69937;SDS011;57248;47.320;15.998;2023-02-03T06:14:56;13.93;;;5.85;;
69937;SDS011;57248;47.320;15.998;2023-02-03T06:17:28;12.87;;;4.73;;
69937;SDS011;57248;47.320;15.998;2023-02-03T06:20:01;11.52;;;4.70;;
69937;SDS011;57248;47.320;15.998;2023-02-03T06:22:37;11.70;;;5.13;;
69937;SDS011;57248;47.320;15.998;2023-02-03T06:25:09;13.85;;;5.32;;
69937;SDS011;57248;47.320;15.998;2023-02-03T06:27:42;16.38;;;5.70;;
69937;SDS011;57248;47.320;15.998;2023-02-03T06:30:14;22.57;;;9.33;;
69937;SDS011;57248;47.320;15.998;2023-02-03T06:32:46;24.95;;;9.00;;
69937;SDS011;57248;47.320;15.998;2023-02-03T06:35:19;19.90;;;8.05;;
69937;SDS011;57248;47.320;15.998;2023-02-03T06:37:51;19.88;;;8.00;;
69937;SDS011;57248;47.320;15.998;2023-02-03T06:40:23;14.40;;;5.93;;
69937;SDS011;57248;47.320;15.998;2023-02-03T06:42:55;11.73;;;4.30;;
69937;SDS011;57248;47.320;15.998;2023-02-03T06:45:27;9.82;;;3.78;;
69937;SDS011;57248;47.320;15.998;2023-02-03T06:47:59;11.23;;;4.32;;
69937;SDS011;57248;47.320;15.998;2023-02-03T06:50:31;11.98;;;3.92;;
69937;SDS011;57248;47.320;15.998;2023-02-03T06:53:03;11.60;;;4.43;;
69937;SDS011;57248;47.320;15.998;2023-02-03T06:55:42;14.23;;;4.33;;
69937;SDS011;57248;47.320;15.998;2023-02-03T06:58:14;12.45;;;4.55;;
69937;SDS011;57248;47.320;15.998;2023-02-03T07:00:46;11.75;;;4.95;;
69937;SDS011;57248;47.320;15.998;2023-02-03T07:03:18;13.15;;;4.80;;
69937;SDS011;57248;47.320;15.998;2023-02-03T07:05:43;12.77;;;5.13;;
69937;SDS011;57248;47.320;15.998;2023-02-03T07:08:15;9.80;;;4.32;;
69937;SDS011;57248;47.320;15.998;2023-02-03T07:10:48;11.13;;;4.40;;
69937;SDS011;57248;47.320;15.998;2023-02-03T07:13:24;13.37;;;4.97;;
69937;SDS011;57248;47.320;15.998;2023-02-03T07:15:56;12.52;;;4.47;;
69937;SDS011;57248;47.320;15.998;2023-02-03T07:18:28;17.08;;;7.05;;
69937;SDS011;57248;47.320;15.998;2023-02-03T07:21:03;14.32;;;6.50;;
69937;SDS011;57248;47.320;15.998;2023-02-03T07:23:35;11.65;;;4.80;;
69937;SDS011;57248;47.320;15.998;2023-02-03T07:26:08;14.23;;;6.80;;
69937;SDS011;57248;47.320;15.998;2023-02-03T07:28:41;22.42;;;9.20;;
69937;SDS011;57248;47.320;15.998;2023-02-03T07:31:13;18.73;;;8.40;;
69937;SDS011;57248;47.320;15.998;2023-02-03T07:33:45;14.77;;;6.90;;
69937;SDS011;57248;47.320;15.998;2023-02-03T07:36:17;17.10;;;7.22;;
69937;SDS011;57248;47.320;15.998;2023-02-03T07:38:49;15.13;;;6.50;;
69937;SDS011;57248;47.320;15.998;2023-02-03T07:41:22;11.68;;;4.45;;
69937;SDS011;57248;47.320;15.998;2023-02-03T07:43:54;10.30;;;3.85;;
69937;SDS011;57248;47.320;15.998;2023-02-03T07:46:26;10.85;;;3.45;;
69937;SDS011;57248;47.320;15.998;2023-02-03T07:48:58;9.52;;;4.05;;
69937;SDS011;57248;47.320;15.998;2023-02-03T07:51:30;12.67;;;3.93;;
69937;SDS011;57248;47.320;15.998;2023-02-03T07:54:02;10.05;;;4.03;;
69937;SDS011;57248;47.320;15.998;2023-02-03T07:56:34;8.68;;;3.45;;
69937;SDS011;57248;47.320;15.998;2023-02-03T07:59:15;7.35;;;2.90;;
69937;SDS011;57248;47.320;15.998;2023-02-03T08:01:47;5.85;;;2.50;;
69937;SDS011;57248;47.320;15.998;2023-02-03T08:04:19;6.80;;;2.80;;
69937;SDS011;57248;47.320;15.998;2023-02-03T08:06:51;6.45;;;2.75;;
69937;SDS011;57248;47.320;15.998;2023-02-03T08:09:24;7.95;;;3.47;;
69937;SDS011;57248;47.320;15.998;2023-02-03T08:11:57;10.30;;;3.22;;
69937;SDS011;57248;47.320;15.998;2023-02-03T08:14:29;7.72;;;3.35;;
69937;SDS011;57248;47.320;15.998;2023-02-03T08:17:01;8.33;;;3.40;;
69937;SDS011;57248;47.320;15.998;2023-02-03T08:19:27;7.90;;;3.70;;
69937;SDS011;57248;47.320;15.998;2023-02-03T08:21:59;7.40;;;3.30;;
69937;SDS011;57248;47.320;15.998;2023-02-03T08:24:25;7.67;;;3.37;;
69937;SDS011;57248;47.320;15.998;2023-02-03T08:26:57;8.77;;;3.37;;
69937;SDS011;57248;47.320;15.998;2023-02-03T08:29:31;11.40;;;3.40;;
69937;SDS011;57248;47.320;15.998;2023-02-03T08:32:04;8.82;;;3.28;;
69937;SDS011;57248;47.320;15.998;2023-02-03T08:34:32;8.57;;;3.25;;
69937;SDS011;57248;47.320;15.998;2023-02-03T08:37:04;7.80;;;2.88;;
69937;SDS011;57248;47.320;15.998;2023-02-03T08:39:36;7.50;;;2.90;;
69937;SDS011;57248;47.320;15.998;2023-02-03T08:42:08;7.68;;;3.08;;
69937;SDS011;57248;47.320;15.998;2023-02-03T08:44:41;6.00;;;2.22;;
69937;SDS011;57248;47.320;15.998;2023-02-03T08:47:14;5.68;;;2.50;;
69937;SDS011;57248;47.320;15.998;2023-02-03T08:50:02;6.28;;;2.65;;
69937;SDS011;57248;47.320;15.998;2023-02-03T08:52:35;4.97;;;1.70;;
69937;SDS011;57248;47.320;15.998;2023-02-03T08:55:14;5.32;;;1.58;;
69937;SDS011;57248;47.320;15.998;2023-02-03T08:57:46;4.05;;;1.40;;
69937;SDS011;57248;47.320;15.998;2023-02-03T09:00:18;4.28;;;1.42;;
69937;SDS011;57248;47.320;15.998;2023-02-03T09:02:50;4.45;;;1.52;;
69937;SDS011;57248;47.320;15.998;2023-02-03T09:05:22;3.33;;;1.47;;
69937;SDS011;57248;47.320;15.998;2023-02-03T09:07:54;3.95;;;1.60;;
69937;SDS011;57248;47.320;15.998;2023-02-03T09:10:26;3.55;;;1.50;;
69937;SDS011;57248;47.320;15.998;2023-02-03T09:12:59;4.00;;;1.50;;
69937;SDS011;57248;47.320;15.998;2023-02-03T09:15:31;3.30;;;1.48;;
69937;SDS011;57248;47.320;15.998;2023-02-03T09:18:03;3.20;;;1.20;;
69937;SDS011;57248;47.320;15.998;2023-02-03T09:20:35;3.25;;;1.55;;
69937;SDS011;57248;47.320;15.998;2023-02-03T09:23:07;3.67;;;1.73;;
69937;SDS011;57248;47.320;15.998;2023-02-03T09:25:39;2.55;;;1.02;;
69937;SDS011;57248;47.320;15.998;2023-02-03T09:28:11;3.83;;;1.40;;
69937;SDS011;57248;47.320;15.998;2023-02-03T09:30:43;2.97;;;0.93;;
69937;SDS011;57248;47.320;15.998;2023-02-03T09:33:15;3.35;;;1.30;;
69937;SDS011;57248;47.320;15.998;2023-02-03T09:35:51;2.78;;;1.23;;
69937;SDS011;57248;47.320;15.998;2023-02-03T09:38:25;3.15;;;1.20;;
69937;SDS011;57248;47.320;15.998;2023-02-03T09:41:02;3.63;;;1.17;;
69937;SDS011;57248;47.320;15.998;2023-02-03T09:43:50;3.63;;;1.30;;
69937;SDS011;57248;47.320;15.998;2023-02-03T09:47:13;4.55;;;1.33;;
69937;SDS011;57248;47.320;15.998;2023-02-03T09:52:19;4.50;;;1.60;;
69937;SDS011;57248;47.320;15.998;2023-02-03T09:54:55;4.30;;;1.73;;
69937;SDS011;57248;47.320;15.998;2023-02-03T09:57:48;5.10;;;1.50;;
69937;SDS011;57248;47.320;15.998;2023-02-03T10:00:29;4.90;;;1.95;;
69937;SDS011;57248;47.320;15.998;2023-02-03T10:06:08;3.50;;;1.60;;
69937;SDS011;57248;47.320;15.998;2023-02-03T10:17:24;4.80;;;1.70;;
69937;SDS011;57248;47.320;15.998;2023-02-03T10:22:40;4.20;;;1.50;;
69937;SDS011;57248;47.320;15.998;2023-02-03T10:25:18;4.60;;;1.53;;
69937;SDS011;57248;47.320;15.998;2023-02-03T10:27:55;4.80;;;1.95;;
69937;SDS011;57248;47.320;15.998;2023-02-03T10:30:31;7.45;;;3.03;;
69937;SDS011;57248;47.320;15.998;2023-02-03T10:33:16;5.88;;;2.78;;
69937;SDS011;57248;47.320;15.998;2023-02-03T10:35:51;6.88;;;2.60;;
69937;SDS011;57248;47.320;15.998;2023-02-03T10:41:03;4.45;;;2.05;;
69937;SDS011;57248;47.320;15.998;2023-02-03T10:43:29;5.10;;;2.13;;
69937;SDS011;57248;47.320;15.998;2023-02-03T10:48:59;2.80;;;0.80;;
69937;SDS011;57248;47.320;15.998;2023-02-03T10:51:42;4.20;;;0.90;;
69937;SDS011;57248;47.320;15.998;2023-02-03T10:57:03;3.13;;;1.15;;
69937;SDS011;57248;47.320;15.998;2023-02-03T10:59:45;3.35;;;1.08;;
69937;SDS011;57248;47.320;15.998;2023-02-03T11:02:24;4.40;;;1.40;;
69937;SDS011;57248;47.320;15.998;2023-02-03T11:07:46;2.90;;;0.77;;
69937;SDS011;57248;47.320;15.998;2023-02-03T11:13:11;2.47;;;0.68;;
69937;SDS011;57248;47.320;15.998;2023-02-03T11:21:17;4.75;;;0.80;;
69937;SDS011;57248;47.320;15.998;2023-02-03T11:23:56;2.90;;;0.68;;
69937;SDS011;57248;47.320;15.998;2023-02-03T11:26:35;3.42;;;1.08;;
69937;SDS011;57248;47.320;15.998;2023-02-03T11:29:04;3.20;;;1.25;;
69937;SDS011;57248;47.320;15.998;2023-02-03T11:31:38;3.10;;;1.27;;
69937;SDS011;57248;47.320;15.998;2023-02-03T11:34:14;1.60;;;0.40;;
69937;SDS011;57248;47.320;15.998;2023-02-03T11:36:49;2.03;;;0.80;;
69937;SDS011;57248;47.320;15.998;2023-02-03T11:39:29;2.60;;;0.70;;
69937;SDS011;57248;47.320;15.998;2023-02-03T11:42:22;2.67;;;0.93;;
69937;SDS011;57248;47.320;15.998;2023-02-03T11:45:08;3.23;;;0.97;;
69937;SDS011;57248;47.320;15.998;2023-02-03T11:51:27;4.05;;;0.98;;
69937;SDS011;57248;47.320;15.998;2023-02-03T11:59:45;2.00;;;0.50;;
69937;SDS011;57248;47.320;15.998;2023-02-03T12:08:42;2.05;;;0.35;;
69937;SDS011;57248;47.320;15.998;2023-02-03T12:14:12;3.67;;;1.07;;
69937;SDS011;57248;47.320;15.998;2023-02-03T12:17:31;3.08;;;0.50;;
69937;SDS011;57248;47.320;15.998;2023-02-03T12:25:56;4.03;;;0.90;;
69937;SDS011;57248;47.320;15.998;2023-02-03T12:31:36;2.17;;;0.40;;
69937;SDS011;57248;47.320;15.998;2023-02-03T12:37:14;0.63;;;0.10;;
69937;SDS011;57248;47.320;15.998;2023-02-03T12:40:01;0.43;;;0.00;;
69937;SDS011;57248;47.320;15.998;2023-02-03T12:42:38;2.17;;;0.00;;
69937;SDS011;57248;47.320;15.998;2023-02-03T12:45:18;0.10;;;0.00;;
69937;SDS011;57248;47.320;15.998;2023-02-03T12:48:17;1.50;;;0.00;;
69937;SDS011;57248;47.320;15.998;2023-02-03T12:51:36;0.57;;;0.00;;
69937;SDS011;57248;47.320;15.998;2023-02-03T12:59:56;0.73;;;0.00;;
69937;SDS011;57248;47.320;15.998;2023-02-03T13:02:37;0.13;;;0.00;;
69937;SDS011;57248;47.320;15.998;2023-02-03T13:05:25;3.33;;;0.00;;
69937;SDS011;57248;47.320;15.998;2023-02-03T13:08:11;3.22;;;0.08;;
69937;SDS011;57248;47.320;15.998;2023-02-03T13:10:52;0.10;;;0.00;;
69937;SDS011;57248;47.320;15.998;2023-02-03T13:13:48;0.30;;;0.00;;
69937;SDS011;57248;47.320;15.998;2023-02-03T13:16:26;0.47;;;0.00;;
69937;SDS011;57248;47.320;15.998;2023-02-03T13:19:14;1.17;;;0.03;;
69937;SDS011;57248;47.320;15.998;2023-02-03T13:21:51;0.75;;;0.00;;
69937;SDS011;57248;47.320;15.998;2023-02-03T13:24:23;0.83;;;0.00;;
69937;SDS011;57248;47.320;15.998;2023-02-03T13:27:13;0.60;;;0.00;;
69937;SDS011;57248;47.320;15.998;2023-02-03T13:42:25;0.68;;;0.10;;
69937;SDS011;57248;47.320;15.998;2023-02-03T13:45:24;0.20;;;0.00;;
69937;SDS011;57248;47.320;15.998;2023-02-03T13:48:04;1.77;;;0.08;;
69937;SDS011;57248;47.320;15.998;2023-02-03T13:50:44;0.55;;;0.00;;
69937;SDS011;57248;47.320;15.998;2023-02-03T13:53:20;0.97;;;0.17;;
69937;SDS011;57248;47.320;15.998;2023-02-03T13:58:39;0.17;;;0.00;;
69937;SDS011;57248;47.320;15.998;2023-02-03T14:01:31;0.38;;;0.00;;
69937;SDS011;57248;47.320;15.998;2023-02-03T14:04:07;0.35;;;0.00;;
69937;SDS011;57248;47.320;15.998;2023-02-03T14:07:02;0.10;;;0.00;;
69937;SDS011;57248;47.320;15.998;2023-02-03T14:09:37;0.47;;;0.00;;
69937;SDS011;57248;47.320;15.998;2023-02-03T14:15:02;2.30;;;0.22;;
69937;SDS011;57248;47.320;15.998;2023-02-03T14:28:15;0.75;;;0.00;;
69937;SDS011;57248;47.320;15.998;2023-02-03T14:31:15;3.03;;;1.70;;
69937;SDS011;57248;47.320;15.998;2023-02-03T14:33:55;3.97;;;0.20;;
69937;SDS011;57248;47.320;15.998;2023-02-03T14:36:39;2.22;;;0.22;;
69937;SDS011;57248;47.320;15.998;2023-02-03T14:45:38;2.17;;;0.00;;
69937;SDS011;57248;47.320;15.998;2023-02-03T14:48:13;5.77;;;0.20;;
69937;SDS011;57248;47.320;15.998;2023-02-03T14:59:53;0.15;;;0.00;;
69937;SDS011;57248;47.320;15.998;2023-02-03T15:02:29;0.17;;;0.00;;
69937;SDS011;57248;47.320;15.998;2023-02-03T15:07:49;0.90;;;0.00;;
69937;SDS011;57248;47.320;15.998;2023-02-03T15:10:29;4.20;;;0.55;;
69937;SDS011;57248;47.320;15.998;2023-02-03T15:13:22;0.35;;;0.00;;
69937;SDS011;57248;47.320;15.998;2023-02-03T15:16:12;0.40;;;0.00;;
69937;SDS011;57248;47.320;15.998;2023-02-03T15:18:58;0.10;;;0.00;;
69937;SDS011;57248;47.320;15.998;2023-02-03T15:21:40;1.08;;;0.10;;
69937;SDS011;57248;47.320;15.998;2023-02-03T15:24:13;0.20;;;0.08;;
69937;SDS011;57248;47.320;15.998;2023-02-03T15:26:51;0.77;;;0.00;;
69937;SDS011;57248;47.320;15.998;2023-02-03T15:32:07;1.27;;;0.00;;
69937;SDS011;57248;47.320;15.998;2023-02-03T15:34:44;1.02;;;0.00;;
69937;SDS011;57248;47.320;15.998;2023-02-03T15:37:22;2.80;;;0.00;;
69937;SDS011;57248;47.320;15.998;2023-02-03T15:40:01;0.70;;;0.00;;
69937;SDS011;57248;47.320;15.998;2023-02-03T15:42:42;0.70;;;0.00;;
69937;SDS011;57248;47.320;15.998;2023-02-03T15:46:03;0.60;;;0.00;;
69937;SDS011;57248;47.320;15.998;2023-02-03T15:48:45;0.50;;;0.00;;
69937;SDS011;57248;47.320;15.998;2023-02-03T15:51:23;0.40;;;0.00;;
69937;SDS011;57248;47.320;15.998;2023-02-03T15:54:06;1.85;;;0.00;;
69937;SDS011;57248;47.320;15.998;2023-02-03T15:59:41;1.33;;;0.00;;
69937;SDS011;57248;47.320;15.998;2023-02-03T16:02:33;0.17;;;0.00;;
69937;SDS011;57248;47.320;15.998;2023-02-03T16:05:24;0.85;;;0.08;;
69937;SDS011;57248;47.320;15.998;2023-02-03T16:13:57;0.45;;;0.00;;
69937;SDS011;57248;47.320;15.998;2023-02-03T16:16:32;0.08;;;0.00;;
69937;SDS011;57248;47.320;15.998;2023-02-03T16:19:15;0.10;;;0.00;;
69937;SDS011;57248;47.320;15.998;2023-02-03T16:21:51;0.57;;;0.00;;
69937;SDS011;57248;47.320;15.998;2023-02-03T16:36:11;1.85;;;0.10;;
69937;SDS011;57248;47.320;15.998;2023-02-03T16:39:05;0.70;;;0.00;;
69937;SDS011;57248;47.320;15.998;2023-02-03T16:42:04;0.55;;;0.00;;
69937;SDS011;57248;47.320;15.998;2023-02-03T16:45:03;1.98;;;0.20;;
69937;SDS011;57248;47.320;15.998;2023-02-03T16:48:01;0.08;;;0.00;;
69937;SDS011;57248;47.320;15.998;2023-02-03T16:50:52;0.68;;;0.00;;
69937;SDS011;57248;47.320;15.998;2023-02-03T16:53:26;0.30;;;0.00;;
69937;SDS011;57248;47.320;15.998;2023-02-03T16:56:01;0.30;;;0.00;;
69937;SDS011;57248;47.320;15.998;2023-02-03T16:58:41;0.10;;;0.00;;
69937;SDS011;57248;47.320;15.998;2023-02-03T17:01:14;1.23;;;0.10;;
69937;SDS011;57248;47.320;15.998;2023-02-03T17:03:46;0.65;;;0.00;;
69937;SDS011;57248;47.320;15.998;2023-02-03T17:06:18;0.93;;;0.00;;
69937;SDS011;57248;47.320;15.998;2023-02-03T17:09:04;0.93;;;0.08;;
69937;SDS011;57248;47.320;15.998;2023-02-03T17:11:30;0.98;;;0.00;;
69937;SDS011;57248;47.320;15.998;2023-02-03T17:14:02;0.53;;;0.00;;
69937;SDS011;57248;47.320;15.998;2023-02-03T17:16:34;0.10;;;0.00;;
69937;SDS011;57248;47.320;15.998;2023-02-03T17:19:09;0.10;;;0.00;;
69937;SDS011;57248;47.320;15.998;2023-02-03T17:21:42;1.27;;;0.00;;
69937;SDS011;57248;47.320;15.998;2023-02-03T17:24:14;2.08;;;0.10;;
69937;SDS011;57248;47.320;15.998;2023-02-03T17:26:46;0.20;;;0.00;;
69937;SDS011;57248;47.320;15.998;2023-02-03T17:29:18;1.15;;;0.00;;
69937;SDS011;57248;47.320;15.998;2023-02-03T17:31:44;0.10;;;0.00;;
69937;SDS011;57248;47.320;15.998;2023-02-03T17:34:16;0.00;;;0.00;;
69937;SDS011;57248;47.320;15.998;2023-02-03T17:36:48;1.30;;;0.00;;
69937;SDS011;57248;47.320;15.998;2023-02-03T17:39:21;9.40;;;2.53;;
69937;SDS011;57248;47.320;15.998;2023-02-03T17:41:53;1.88;;;0.00;;
69937;SDS011;57248;47.320;15.998;2023-02-03T17:44:25;2.08;;;0.05;;
69937;SDS011;57248;47.320;15.998;2023-02-03T17:46:57;0.20;;;0.00;;
69937;SDS011;57248;47.320;15.998;2023-02-03T17:49:30;0.30;;;0.00;;
69937;SDS011;57248;47.320;15.998;2023-02-03T17:52:02;0.00;;;0.00;;
69937;SDS011;57248;47.320;15.998;2023-02-03T17:54:34;0.20;;;0.00;;
69937;SDS011;57248;47.320;15.998;2023-02-03T17:57:13;0.10;;;0.00;;
69937;SDS011;57248;47.320;15.998;2023-02-03T17:59:52;0.10;;;0.00;;
69937;SDS011;57248;47.320;15.998;2023-02-03T18:02:25;0.40;;;0.00;;
69937;SDS011;57248;47.320;15.998;2023-02-03T18:04:51;0.60;;;0.00;;
69937;SDS011;57248;47.320;15.998;2023-02-03T18:07:22;0.45;;;0.00;;
69937;SDS011;57248;47.320;15.998;2023-02-03T18:09:55;1.00;;;0.00;;